LDPLLIPH

Guest
Details From LDPL - Pula
To LIPH - TREVISO
Flight Number -
Tags generated
Created
Modified
Stats Distance 86 nm / 159 km
Max Altitude 8,700 ft / 2,652 m
Waypoints 4
Social Downloads 0
Likes 0
Share VATSIM

Download

Looking for another format? Having issues loading an existing format? Contact us
Advertisement - Login to hide

Notes

Basic altitude profile: - Ascent Rate: 2500ft/min - Ascent Speed: 250kts - Cruise Altitude: 35000ft - Cruise Speed: 420kts - Descent Rate: 1500ft/min - Descent Speed: 250kts Options: - Use NATs: yes - Use PACOTS: yes - Use low airways: yes - Use high airways: yes

Route

LDPL BAKSO P11 ROTAR LIPH

ID Type Via Altitude Latitude Longitude Leg Dist Tot Dist Heading (true) Name
O LDPL APT - 0 ft / 0 m 44.89353˚ 13.92216˚ - 0 nm - Pula
BAKSO FIX - 7,400 ft / 2,256 m 45.06389˚ 13.49444˚ 20 nm 20 nm 300° / 299° -
ROTAR FIX P11 (AWY-LO) 8,700 ft / 2,652 m 45.26278˚ 12.99556˚ 24 nm 45 nm 300° / 299° -
O LIPH APT - 0 ft / 0 m 45.64850˚ 12.19414˚ 40 nm 86 nm 305° / 304° TREVISO

Altitude Profile

Advertisement - Login to hide

LDPL

Details ICAO LDPL (PUY)
Name Pula
Region Croatia
Timezone Europe/Zagreb (UTC+2.0)
Stats Elevation 274 ft / 84 m (AMSL)
Location 44.893531° 13.922156°
Runways 1
Magnetic Variation 3.522° E

METAR

LDPL 222130Z 08005KT 9999 FEW020 18/16 Q1015 NOSIG

Decode

TAF

TAF LDPL 221725Z 2218/2318 11007KT 9999 BKN030 TX20/2313Z TN14/2303Z PROB40 TEMPO 2222/2310 18015G25KT 4000 TSRA SCT025CB BKN030 TEMPO 2302/2309 RA BKN010

Decode

Departure Runways

ID Width Length Bearing (true) Bearing (mag) Surface Threshold Offset Overrun Length
09 148 ft / 45 m 9,601 ft / 2,926 m 88.24° 84.72° Asphalt 250 ft / 76 m 0 ft / 0 m
27 148 ft / 45 m 9,601 ft / 2,926 m 268.27° 264.75° Asphalt 250 ft / 76 m 0 ft / 0 m

LIPH

Details ICAO LIPH (TSF)
Name TREVISO
Region Italy
Timezone Europe/Rome (UTC+2.0)
Stats Elevation 59 ft / 18 m (AMSL)
Location 45.648499° 12.194136°
Runways 1
Magnetic Variation 3.202° E

METAR

LIPH 222120Z AUTO 03004KT 360V060 9999 FEW019/// SCT060/// BKN098/// 18/17 Q1016

Decode

TAF

TAF LIPH 221700Z 2218/2318 VRB05KT 9999 SCT040 TEMPO 2310/2316 TSRA

Decode

Destination Runways

ID Width Length Bearing (true) Bearing (mag) Surface Threshold Offset Overrun Length
07 144 ft / 44 m 7,919 ft / 2,414 m 69.18° 65.98° Asphalt 254 ft / 77 m 975 ft / 297 m
25 144 ft / 44 m 7,919 ft / 2,414 m 249.20° 246.00° Asphalt 389 ft / 119 m 0 ft / 0 m

Approach Navaids

Runway Type Ident Frequency Range Bearing (true) Bearing (mag) Slope Elevation
07 Localiser TRE 109.30 MHz 18 nm / 33 km 69.20° 66.00° - 51 ft / 16 m (AMSL)
07 Glidescope TRE 109.30 MHz 10 nm / 19 km 69.19° 65.99° 3.00° 56 ft / 17 m (AMSL)

Popular Alternatives